Airfield :







YOU CAN JOIN US ON...

 
LOGIN :

Register | Disclaimer

   EN    FR    IT 

 









Legend :    VFR   Marginal VFR   IFR   Intensive IFR   Very Intensive IFR
Visi :
Ceiling :
>= 8 km
>= 3000ft
5 to 8 km
1000 to 3000 ft
1500m to 5 km
500 to 1000 ft
800 to 1500m
200 to 500 ft
< 800m
< 200 ft
Symbols :   Thunderstorms  Fog  Heavy snow  Heavy precipitations  Wind > 20 kt






- Airport Elevation : 16 ft
- IATA code : FDF


TFFF - Aime Cesaire

CURRENT METAR :
  • 292000Z AUTO 10016KT 9999 -RA SCT018/// BKN025/// BKN033/// ///TCU 27/25 Q1009 TEMPO VRB15G30KT 1000 TSRA SCT010CB BKN016TCU

EXPIRED METARs :
  • 291930Z AUTO 10015KT 9999 SCT019 BKN026 BKN160 27/25 Q1009 TEMPO VRB15G30KT 1000 TSRA SCT010CB BKN016TCU
  • 291900Z AUTO 10016KT 9999 BKN024 BKN160 27/24 Q1009 TEMPO VRB15G30KT 1000 TSRA SCT010CB BKN016TCU
  • 291830Z AUTO 11014KT 9999 BKN020 BKN150 27/25 Q1009 TEMPO VRB15G30KT 1000 TSRA SCT010CB BKN016TCU
  • 291800Z AUTO 10015KT 9999 FEW018 BKN150 27/25 Q1009 TEMPO VRB15G30KT 1000 TSRA SCT010CB BKN016TCU
  • 291730Z AUTO 11017KT 9999 -RA FEW015 BKN031 BKN120 26/24 Q1010 TEMPO VRB15G30KT 1000 TSRA SCT010CB BKN016TCU

TAF TAF TFFF
Valid from the 29 at 18:00 until the 30 at 18:00 UTC


291600Z 2918/3018 10013KT 9999 SCT015 BKN020
TEMPO 2918/3018 12015G25KT 3000 SHRA FEW015CB BKN018TCU
PROB30
TEMPO 2918/2924 VRB15G30KT 1000 TSRA SCT010CB BKN016TCU
PROB30
TEMPO 3012/3018 VRB15G30KT 1000 TSRA SCT010CB BKN016TCU
TTZP FIR / North America



MET'MAP, your aeronautical weather chart ! - Copyright ORBIFLY December 2007 - Disclaimer

ORBIFLY MET'MAP TEAM :

Programming & Development : Alexandra Zaïnal
Concept & original design : Baudouin d'Aumeries
Assistance for programming : Marc-Olivier Méhu
Technical & hardware support : Manuel Goepfert

Contact : metmap@orbifly.com




SOURCES & CREDITS :

   NOAA